createdAt,value
2023-05-23T12:34:46.711Z,16.90
2023-05-23T12:39:49.909Z,17.40
2023-05-23T12:44:54.899Z,16.90
2023-05-23T12:49:59.446Z,16.70
2023-05-23T12:55:02.598Z,16.90
2023-05-23T13:00:07.043Z,17.30
2023-05-23T13:05:12.434Z,17.10
2023-05-23T13:10:15.911Z,17.50
2023-05-23T13:15:19.197Z,17.40
2023-05-23T13:20:23.799Z,16.60
2023-05-23T13:25:27.728Z,16.80
2023-05-23T13:30:30.993Z,17.10
2023-05-23T13:35:35.567Z,17.00
2023-05-23T13:40:39.581Z,16.60
2023-05-23T13:45:43.314Z,17.00
2023-05-23T13:50:48.075Z,16.80
2023-05-23T13:55:51.332Z,16.90
2023-05-23T14:00:55.261Z,16.70
2023-05-23T14:06:00.137Z,16.70
2023-05-23T14:11:03.460Z,16.60
2023-05-23T14:16:07.117Z,16.70
2023-05-23T14:21:11.755Z,16.30
2023-05-23T14:26:15.037Z,16.60
2023-05-23T14:31:18.318Z,16.30
2023-05-23T14:36:23.005Z,16.40
2023-05-23T14:41:27.175Z,16.50
2023-05-23T14:46:30.414Z,16.00
2023-05-23T14:51:44.131Z,16.20
2023-05-23T14:56:52.694Z,16.00
2023-05-23T15:01:56.691Z,16.10
2023-05-23T15:07:01.793Z,16.20
2023-05-23T15:12:07.648Z,16.10
2023-05-23T15:17:12.712Z,15.80
2023-05-23T15:22:35.199Z,15.60
2023-05-23T15:27:40.595Z,15.50
2023-05-23T15:32:43.809Z,15.50
2023-05-23T15:37:48.574Z,15.50
2023-05-23T15:42:51.888Z,15.30
2023-05-23T15:47:55.184Z,15.40
2023-05-23T15:52:59.805Z,15.50
2023-05-23T15:58:03.222Z,15.40
2023-05-23T16:03:06.581Z,15.30
2023-05-23T16:08:11.269Z,15.30
2023-05-23T16:13:16.274Z,15.10
2023-05-23T16:18:23.384Z,14.80
2023-05-23T16:28:32.145Z,14.90
2023-05-23T16:33:36.016Z,14.90
2023-05-23T16:38:40.733Z,14.70
2023-05-23T16:43:44.020Z,14.80
2023-05-23T16:48:47.217Z,14.70
2023-05-23T16:53:51.803Z,14.70
2023-05-23T16:58:55.018Z,14.40
2023-05-23T17:03:58.548Z,14.50
2023-05-23T17:09:03.228Z,14.60
2023-05-23T17:14:06.587Z,14.30
2023-05-23T17:19:10.089Z,14.40
2023-05-23T17:24:14.796Z,14.40
2023-05-23T17:29:20.281Z,14.50
2023-05-23T17:34:23.544Z,14.30
2023-05-23T17:39:28.338Z,14.10
2023-05-23T17:44:31.704Z,14.10
2023-05-23T17:49:35.097Z,14.10
2023-05-23T17:54:39.782Z,14.10
2023-05-23T17:59:42.998Z,13.90
2023-05-23T18:04:46.659Z,13.90
2023-05-23T18:09:51.339Z,13.90
2023-05-23T18:14:54.505Z,13.90
2023-05-23T18:19:57.721Z,13.70
2023-05-23T18:25:02.273Z,13.70
2023-05-23T18:30:06.494Z,13.70
2023-05-23T18:35:10.438Z,13.60
2023-05-23T18:40:16.115Z,13.70
2023-05-23T18:45:19.305Z,13.60
2023-05-23T18:50:22.687Z,13.50
2023-05-23T18:55:27.158Z,13.40
2023-05-23T19:00:30.419Z,13.40
2023-05-23T19:05:33.603Z,13.40
2023-05-23T19:10:38.237Z,13.30
2023-05-23T19:15:41.467Z,13.10
2023-05-23T19:20:44.636Z,13.20
2023-05-23T19:25:49.359Z,12.90
2023-05-23T19:30:52.550Z,12.90
2023-05-23T19:35:55.974Z,12.90
2023-05-23T19:41:00.564Z,12.90
2023-05-23T19:46:03.800Z,12.80
2023-05-23T19:51:07.058Z,12.90
2023-05-23T19:56:11.545Z,12.70
2023-05-23T20:01:14.840Z,12.80
2023-05-23T20:06:18.760Z,12.70
2023-05-23T20:11:23.765Z,12.60
2023-05-23T20:16:27.569Z,12.60
2023-05-23T20:21:31.559Z,12.60
2023-05-23T20:26:38.472Z,12.50
2023-05-23T20:31:44.372Z,12.50
2023-05-23T20:36:47.755Z,12.40
2023-05-23T20:41:53.758Z,12.40
2023-05-23T20:46:57.729Z,12.40
2023-05-23T20:52:01.107Z,12.30
2023-05-23T20:57:06.282Z,12.30
2023-05-23T21:02:10.180Z,12.30
2023-05-23T21:07:14.042Z,12.40
2023-05-23T21:12:18.667Z,12.40
2023-05-23T21:17:21.945Z,12.40
2023-05-23T21:22:25.081Z,12.30
2023-05-23T21:27:29.701Z,12.30
2023-05-23T21:32:32.933Z,12.20
2023-05-23T21:37:36.202Z,12.20
2023-05-23T21:42:40.765Z,12.10
2023-05-23T21:47:43.989Z,12.10
2023-05-23T21:52:47.235Z,12.00
2023-05-23T21:57:51.811Z,12.00
2023-05-23T22:02:55.235Z,12.00
2023-05-23T22:07:58.602Z,12.00
2023-05-23T22:13:03.454Z,11.90
2023-05-23T22:18:07.530Z,11.80
2023-05-23T22:23:17.949Z,11.90
2023-05-23T22:28:22.737Z,11.90
2023-05-23T22:33:25.996Z,11.80
2023-05-23T22:38:29.189Z,11.80
2023-05-23T22:43:33.819Z,11.70
2023-05-23T22:48:38.511Z,11.70
2023-05-23T22:53:42.239Z,11.70
2023-05-23T22:58:47.073Z,11.70
2023-05-23T23:03:50.262Z,11.70
2023-05-23T23:08:53.516Z,11.70
2023-05-23T23:13:58.490Z,11.80
2023-05-23T23:19:02.630Z,11.80
2023-05-23T23:24:06.194Z,11.80
2023-05-23T23:29:10.744Z,11.70
2023-05-23T23:34:13.931Z,11.80
2023-05-23T23:39:17.125Z,11.60
2023-05-23T23:44:21.753Z,11.60
2023-05-23T23:49:24.910Z,11.60
2023-05-23T23:54:28.117Z,11.90
2023-05-23T23:59:32.662Z,11.80
